TNCM/SXM METAR and TAF weather

Enter ICAO airport designator
Station Type Date Time Source
TNCM METAR 2022/07/03 14:00 UTC NOAA

TNCM 031400Z 09011KT 060V130 9999 SCT016 29/24 Q1020 NOSIG


Station Type Date Time Source
TNCM Decoded METAR 2022/07/03 14:00 UTC NOAA

Juliana Airport, Saint Maarten, Netherlands Antilles (TNCM) 18-03N 063-07W 9M
Jul 03, 2022 - 10:00 AM EDT / 2022.07.03 1400 UTC
Wind: from the E (090 degrees) at 13 MPH (11 KT) (direction variable):0
Visibility: greater than 7 mile(s):0
Sky conditions: partly cloudy
Temperature: 84 F (29 C)
Dew Point: 75 F (24 C)
Relative Humidity: 74%
Pressure (altimeter): 30.12 in. Hg (1020 hPa)
ob: TNCM 031400Z 09011KT 060V130 9999 SCT016 29/24 Q1020 NOSIG
cycle: 14

Station Type Date Time Source
TNCM TAF 2022/07/03 12:06 UTC NOAA

TAF TNCM 031000Z 0312/0412 09013KT 9999 SCT018
TEMPO 0312/0318 BKN016 SCT035

Example: see airport list